createdAt,value
2023-01-08T00:00:04.224Z,14.51
2023-01-08T00:00:15.274Z,14.51
2023-01-08T00:00:27.326Z,14.51
2023-01-08T00:00:54.352Z,14.51
2023-01-08T00:00:55.314Z,14.51
2023-01-08T00:01:07.262Z,14.51
2023-01-08T00:01:19.271Z,14.51
2023-01-08T00:01:31.294Z,14.53
2023-01-08T00:01:42.260Z,14.53
2023-01-08T00:01:53.302Z,14.51
2023-01-08T00:02:05.235Z,14.51
2023-01-08T00:03:44.479Z,14.50
2023-01-08T00:04:03.438Z,14.51
2023-01-08T00:04:08.322Z,14.53
2023-01-08T00:04:20.286Z,14.50
2023-01-08T00:04:32.245Z,14.51
2023-01-08T00:04:44.247Z,14.51
2023-01-08T00:04:56.262Z,14.50
2023-01-08T00:05:08.268Z,14.50
2023-01-08T00:05:20.266Z,14.51
2023-01-08T00:05:32.270Z,14.50
2023-01-08T00:05:43.230Z,14.51
2023-01-08T00:05:55.231Z,14.51
2023-01-08T00:06:07.259Z,14.51
2023-01-08T00:06:18.248Z,14.50
2023-01-08T00:06:30.254Z,14.51
2023-01-08T00:06:41.229Z,14.50
2023-01-08T00:06:53.251Z,14.50
2023-01-08T00:07:05.259Z,14.51
2023-01-08T00:07:16.227Z,14.50
2023-01-08T00:07:27.293Z,14.50
2023-01-08T00:07:39.227Z,14.50
2023-01-08T00:07:51.251Z,14.50
2023-01-08T00:08:02.307Z,14.51
2023-01-08T00:08:14.249Z,14.50
2023-01-08T00:08:25.293Z,14.51
2023-01-08T00:08:36.260Z,14.50
2023-01-08T00:08:47.229Z,14.50
2023-01-08T00:08:58.282Z,14.50
2023-01-08T00:09:10.295Z,14.51
2023-01-08T00:09:22.207Z,14.51
2023-01-08T00:09:33.269Z,14.50
2023-01-08T00:09:45.311Z,14.50
2023-01-08T00:09:56.255Z,14.51
2023-01-08T00:10:08.271Z,14.50
2023-01-08T00:10:20.283Z,14.51
2023-01-08T00:10:31.226Z,14.50
2023-01-08T00:10:43.241Z,14.51
2023-01-08T00:10:55.283Z,14.51
2023-01-08T00:11:07.291Z,14.51
2023-01-08T00:11:19.310Z,14.50
2023-01-08T00:11:31.248Z,14.50
2023-01-08T00:11:43.264Z,14.51
2023-01-08T00:11:55.275Z,14.50
2023-01-08T00:12:07.288Z,14.50
2023-01-08T00:12:19.203Z,14.50
2023-01-08T00:12:30.264Z,14.50
2023-01-08T00:12:41.219Z,14.48
2023-01-08T00:12:53.251Z,14.50
2023-01-08T00:13:04.227Z,14.48
2023-01-08T00:13:16.242Z,14.51
2023-01-08T00:13:27.304Z,14.50
2023-01-08T00:13:39.225Z,14.50
2023-01-08T00:13:50.290Z,14.50
2023-01-08T00:14:01.247Z,14.50
2023-01-08T00:14:12.214Z,14.50
2023-01-08T00:14:24.228Z,14.51
2023-01-08T00:14:36.249Z,14.50
2023-01-08T00:14:47.229Z,14.50
2023-01-08T00:14:58.289Z,14.51
2023-01-08T00:15:10.300Z,14.50
2023-01-08T00:15:21.269Z,14.48
2023-01-08T00:15:32.243Z,14.51
2023-01-08T00:15:43.303Z,14.50
2023-01-08T00:15:55.219Z,14.50
2023-01-08T00:16:06.351Z,14.50
2023-01-08T00:16:18.275Z,14.50
2023-01-08T00:16:29.305Z,14.50
2023-01-08T00:16:40.398Z,14.50
2023-01-08T00:16:51.308Z,14.51
2023-01-08T00:17:02.337Z,14.50
2023-01-08T00:17:14.269Z,14.50
2023-01-08T00:17:26.280Z,14.50
2023-01-08T00:17:37.279Z,14.50
2023-01-08T00:17:48.239Z,14.50
2023-01-08T00:17:59.204Z,14.50
2023-01-08T00:18:10.250Z,14.50
2023-01-08T00:18:21.225Z,14.51
2023-01-08T00:18:32.285Z,14.50
2023-01-08T00:18:43.253Z,14.48
2023-01-08T00:18:55.253Z,14.51
2023-01-08T00:19:07.257Z,14.48
2023-01-08T00:19:18.217Z,14.50
2023-01-08T00:19:29.271Z,14.48
2023-01-08T00:19:41.267Z,14.48
2023-01-08T00:19:53.285Z,14.51
2023-01-08T00:20:05.292Z,14.48
2023-01-08T00:20:17.210Z,14.48
2023-01-08T00:20:28.275Z,14.48
2023-01-08T00:20:40.285Z,14.50
2023-01-08T00:20:52.296Z,14.50
2023-01-08T00:21:04.306Z,14.50
2023-01-08T00:21:15.255Z,14.48
2023-01-08T00:21:27.267Z,14.50
2023-01-08T00:21:39.286Z,14.50
2023-01-08T00:21:51.296Z,14.50
2023-01-08T00:22:03.304Z,14.50
2023-01-08T00:22:15.208Z,14.50
2023-01-08T00:22:26.212Z,14.48
2023-01-08T00:22:37.267Z,14.50
2023-01-08T00:22:48.226Z,14.51
2023-01-08T00:23:00.242Z,14.50
2023-01-08T00:23:11.205Z,14.48
2023-01-08T00:23:22.262Z,14.50
2023-01-08T00:23:33.255Z,14.48
2023-01-08T00:23:44.207Z,14.50
2023-01-08T00:23:55.275Z,14.48
2023-01-08T00:24:07.282Z,14.50
2023-01-08T00:24:19.280Z,14.48
2023-01-08T00:24:31.298Z,14.50
2023-01-08T00:24:43.228Z,14.48
2023-01-08T00:24:54.286Z,14.48
2023-01-08T00:25:05.248Z,14.50
2023-01-08T00:25:17.245Z,14.50
2023-01-08T00:25:29.257Z,14.50
2023-01-08T00:25:40.224Z,14.48
2023-01-08T00:25:51.279Z,14.50
2023-01-08T00:26:03.293Z,14.48
2023-01-08T00:26:14.249Z,14.51
2023-01-08T00:26:25.224Z,14.48
2023-01-08T00:26:36.287Z,14.48
2023-01-08T00:26:48.204Z,14.48
2023-01-08T00:26:59.261Z,14.48
2023-01-08T00:27:10.244Z,14.48
2023-01-08T00:27:21.221Z,14.50
2023-01-08T00:27:32.268Z,14.48
2023-01-08T00:27:43.250Z,14.48
2023-01-08T00:27:55.261Z,14.50
2023-01-08T00:28:06.324Z,14.48
2023-01-08T00:28:18.233Z,14.51
2023-01-08T00:28:30.255Z,14.50
2023-01-08T00:28:41.317Z,14.48
2023-01-08T00:28:53.225Z,14.48
2023-01-08T00:29:16.243Z,14.50
2023-01-08T00:29:17.293Z,14.48
2023-01-08T00:29:28.250Z,14.48
2023-01-08T00:29:39.214Z,14.50
2023-01-08T00:29:50.270Z,14.50
2023-01-08T00:30:16.268Z,14.48
2023-01-08T00:30:17.207Z,14.48
2023-01-08T00:30:44.487Z,14.48
2023-01-08T00:30:45.320Z,14.48
2023-01-08T00:30:57.327Z,14.48
2023-01-08T00:31:09.307Z,14.48
2023-01-08T00:31:21.332Z,14.48
2023-01-08T00:31:43.279Z,14.48
2023-01-08T00:31:44.215Z,14.47
2023-01-08T00:31:56.229Z,14.48
2023-01-08T00:32:07.302Z,14.48
2023-01-08T00:32:19.301Z,14.48
2023-01-08T00:32:31.225Z,14.50
2023-01-08T00:32:43.224Z,14.48
2023-01-08T00:32:54.299Z,14.47
2023-01-08T00:33:05.263Z,14.48
2023-01-08T00:33:16.230Z,14.48
2023-01-08T00:34:39.221Z,14.48
2023-01-08T00:34:51.239Z,14.48
2023-01-08T00:35:02.310Z,14.48
2023-01-08T00:35:13.255Z,14.50
2023-01-08T00:35:25.260Z,14.50
2023-01-08T00:35:37.273Z,14.50
2023-01-08T00:36:00.437Z,14.48
2023-01-08T00:36:01.296Z,14.47
2023-01-08T00:36:12.251Z,14.48
2023-01-08T00:36:24.260Z,14.48
2023-01-08T00:36:35.215Z,14.48
2023-01-08T00:36:46.276Z,14.47
2023-01-08T00:36:57.231Z,14.47
2023-01-08T00:37:08.291Z,14.50
2023-01-08T00:37:20.299Z,14.48
2023-01-08T00:38:39.260Z,14.45
2023-01-08T00:38:50.201Z,14.47
2023-01-08T00:39:01.257Z,14.47
2023-01-08T00:39:23.828Z,14.47
2023-01-08T00:39:25.285Z,14.47
2023-01-08T00:39:37.296Z,14.45
2023-01-08T00:39:49.216Z,14.48
2023-01-08T00:40:00.272Z,14.47
2023-01-08T00:40:11.252Z,14.48
2023-01-08T00:40:34.285Z,14.48
2023-01-08T00:40:35.243Z,14.47
2023-01-08T00:40:47.244Z,14.50
2023-01-08T00:40:59.288Z,14.47
2023-01-08T00:41:11.221Z,14.48
2023-01-08T00:41:37.297Z,14.48
2023-01-08T00:41:38.260Z,14.47
2023-01-08T00:41:50.280Z,14.47
2023-01-08T00:42:01.242Z,14.47
2023-01-08T00:42:12.218Z,14.48
2023-01-08T00:42:24.202Z,14.48
2023-01-08T00:42:36.226Z,14.48
2023-01-08T00:42:47.305Z,14.47
2023-01-08T00:42:59.209Z,14.48
2023-01-08T00:43:10.391Z,14.48
2023-01-08T00:43:22.222Z,14.47
2023-01-08T00:43:33.226Z,14.47
2023-01-08T00:43:45.233Z,14.48
2023-01-08T00:43:56.208Z,14.47
2023-01-08T00:44:07.263Z,14.48
2023-01-08T00:44:18.225Z,14.48
2023-01-08T00:44:29.262Z,14.48
2023-01-08T00:44:41.286Z,14.47
2023-01-08T00:45:00.246Z,14.48
2023-01-08T00:45:04.214Z,14.47
2023-01-08T00:45:16.226Z,14.47
2023-01-08T00:45:27.286Z,14.48
2023-01-08T00:45:38.290Z,14.45
2023-01-08T00:45:49.295Z,14.47
2023-01-08T00:46:00.332Z,14.45
2023-01-08T00:46:19.700Z,14.47
2023-01-08T00:46:24.282Z,14.47
2023-01-08T00:46:35.242Z,14.48
2023-01-08T00:46:46.240Z,14.47
2023-01-08T00:46:58.238Z,14.50
2023-01-08T00:47:09.202Z,14.47
2023-01-08T00:47:20.265Z,14.48
2023-01-08T00:47:31.224Z,14.48
2023-01-08T00:48:57.303Z,14.47
2023-01-08T00:49:15.257Z,14.47
2023-01-08T00:49:19.232Z,14.47
2023-01-08T00:49:30.293Z,14.47
2023-01-08T00:49:42.244Z,14.47
2023-01-08T00:49:53.295Z,14.45
2023-01-08T00:50:05.205Z,14.47
2023-01-08T00:50:24.079Z,14.47
2023-01-08T00:50:28.291Z,14.47
2023-01-08T00:50:51.083Z,14.47
2023-01-08T00:50:52.243Z,14.45
2023-01-08T00:51:04.246Z,14.45
2023-01-08T00:51:15.214Z,14.47
2023-01-08T00:51:27.225Z,14.47
2023-01-08T00:51:38.295Z,14.47
2023-01-08T00:51:50.294Z,14.45
2023-01-08T00:52:01.269Z,14.47
2023-01-08T00:52:20.095Z,14.47
2023-01-08T00:52:23.278Z,14.47
2023-01-08T00:52:35.297Z,14.45
2023-01-08T00:52:46.267Z,14.47
2023-01-08T00:52:58.265Z,14.45
2023-01-08T00:53:09.255Z,14.45
2023-01-08T00:54:37.203Z,14.45
2023-01-08T00:55:00.248Z,14.45
2023-01-08T00:55:01.234Z,14.47
2023-01-08T00:55:12.209Z,14.47
2023-01-08T00:55:23.310Z,14.45
2023-01-08T00:55:35.244Z,14.45
2023-01-08T00:55:47.249Z,14.47
2023-01-08T00:55:59.260Z,14.47
2023-01-08T00:56:11.259Z,14.45
2023-01-08T00:56:30.100Z,14.45
2023-01-08T00:56:33.233Z,14.47
2023-01-08T00:56:44.221Z,14.47
2023-01-08T00:56:56.237Z,14.47
2023-01-08T00:57:08.261Z,14.47
2023-01-08T00:57:20.229Z,14.45
2023-01-08T00:57:32.236Z,14.47
2023-01-08T00:57:43.304Z,14.45
2023-01-08T00:57:55.229Z,14.45
2023-01-08T00:58:06.299Z,14.45
2023-01-08T00:58:18.324Z,14.45
2023-01-08T00:58:30.233Z,14.45
2023-01-08T00:58:42.252Z,14.47
2023-01-08T00:58:54.258Z,14.45
2023-01-08T00:59:05.241Z,14.47
2023-01-08T00:59:17.259Z,14.45
2023-01-08T00:59:29.284Z,14.44
2023-01-08T00:59:41.297Z,14.48
2023-01-08T00:59:53.228Z,14.44
2023-01-08T01:00:05.253Z,14.47
2023-01-08T01:00:16.238Z,14.45
2023-01-08T01:00:27.219Z,14.47
2023-01-08T01:00:38.292Z,14.45
2023-01-08T01:00:50.258Z,14.47
2023-01-08T01:01:01.313Z,14.45
2023-01-08T01:01:12.446Z,14.45
2023-01-08T01:01:24.371Z,14.47
2023-01-08T01:01:36.420Z,14.47
2023-01-08T01:01:47.323Z,14.45
2023-01-08T01:01:58.330Z,14.47
2023-01-08T01:02:09.353Z,14.45
2023-01-08T01:02:21.249Z,14.45
2023-01-08T01:02:32.239Z,14.47
2023-01-08T01:02:43.290Z,14.48
2023-01-08T01:02:54.256Z,14.47
2023-01-08T01:03:05.220Z,14.47
2023-01-08T01:03:17.229Z,14.45
2023-01-08T01:03:29.250Z,14.47
2023-01-08T01:03:40.214Z,14.45
2023-01-08T01:03:51.344Z,14.44
2023-01-08T01:04:10.346Z,14.47
2023-01-08T01:04:15.289Z,14.47
2023-01-08T01:04:33.280Z,14.47
2023-01-08T01:04:37.294Z,14.45
2023-01-08T01:04:49.252Z,14.47
2023-01-08T01:06:07.283Z,14.45
2023-01-08T01:06:18.236Z,14.45
2023-01-08T01:06:29.205Z,14.45
2023-01-08T01:06:40.252Z,14.45
2023-01-08T01:06:52.274Z,14.45
2023-01-08T01:07:04.278Z,14.45
2023-01-08T01:07:15.260Z,14.45
2023-01-08T01:07:26.219Z,14.45
2023-01-08T01:07:38.234Z,14.45
2023-01-08T01:07:49.199Z,14.47
2023-01-08T01:08:00.282Z,14.45
2023-01-08T01:08:11.247Z,14.45
2023-01-08T01:08:23.259Z,14.44
2023-01-08T01:08:34.226Z,14.45
2023-01-08T01:08:46.258Z,14.47
2023-01-08T01:08:57.250Z,14.44
2023-01-08T01:09:09.257Z,14.45
2023-01-08T01:09:21.276Z,14.47
2023-01-08T01:09:33.300Z,14.45
2023-01-08T01:09:45.305Z,14.45
2023-01-08T01:09:57.207Z,14.45
2023-01-08T01:10:09.223Z,14.45
2023-01-08T01:10:21.259Z,14.44
2023-01-08T01:10:32.207Z,14.45
2023-01-08T01:10:43.273Z,14.44
2023-01-08T01:10:54.226Z,14.47
2023-01-08T01:11:06.239Z,14.44
2023-01-08T01:11:18.245Z,14.45
2023-01-08T01:11:30.256Z,14.45
2023-01-08T01:11:42.261Z,14.44
2023-01-08T01:11:54.259Z,14.45
2023-01-08T01:12:05.232Z,14.45
2023-01-08T01:12:16.219Z,14.47
2023-01-08T01:12:28.225Z,14.47
2023-01-08T01:12:40.231Z,14.44
2023-01-08T01:12:51.223Z,14.45
2023-01-08T01:13:02.280Z,14.47
2023-01-08T01:13:13.257Z,14.44
2023-01-08T01:13:25.367Z,14.45
2023-01-08T01:13:36.236Z,14.45
2023-01-08T01:13:47.294Z,14.47
2023-01-08T01:13:59.211Z,14.47
2023-01-08T01:14:10.271Z,14.45
2023-01-08T01:14:22.293Z,14.44
2023-01-08T01:14:34.206Z,14.45
2023-01-08T01:14:45.204Z,14.45
2023-01-08T01:14:56.264Z,14.44
2023-01-08T01:15:08.268Z,14.45
2023-01-08T01:15:19.231Z,14.45
2023-01-08T01:15:30.293Z,14.45
2023-01-08T01:15:41.259Z,14.45
2023-01-08T01:15:53.263Z,14.45
2023-01-08T01:16:05.276Z,14.47
2023-01-08T01:16:17.334Z,14.47
2023-01-08T01:16:29.303Z,14.47
2023-01-08T01:16:41.341Z,14.44
2023-01-08T01:16:52.365Z,14.45
2023-01-08T01:17:03.318Z,14.45
2023-01-08T01:17:14.236Z,14.45
2023-01-08T01:17:26.238Z,14.45
2023-01-08T01:17:38.252Z,14.45
2023-01-08T01:17:49.222Z,14.45
2023-01-08T01:18:00.282Z,14.45
2023-01-08T01:18:12.266Z,14.44
2023-01-08T01:18:24.202Z,14.45
2023-01-08T01:18:35.261Z,14.44
2023-01-08T01:18:46.241Z,14.45
2023-01-08T01:18:58.257Z,14.44
2023-01-08T01:19:09.208Z,14.47
2023-01-08T01:20:45.275Z,14.43
2023-01-08T01:20:56.235Z,14.44
2023-01-08T01:21:08.251Z,14.44
2023-01-08T01:21:20.273Z,14.44
2023-01-08T01:21:32.276Z,14.44
2023-01-08T01:21:44.277Z,14.44
2023-01-08T01:21:56.289Z,14.45
2023-01-08T01:22:07.250Z,14.45
2023-01-08T01:22:18.227Z,14.44
2023-01-08T01:22:29.293Z,14.44
2023-01-08T01:22:40.254Z,14.44
2023-01-08T01:22:51.218Z,14.45
2023-01-08T01:23:02.282Z,14.44
2023-01-08T01:23:13.239Z,14.45
2023-01-08T01:23:24.217Z,14.44
2023-01-08T01:23:35.271Z,14.44
2023-01-08T01:23:47.290Z,14.44
2023-01-08T01:23:59.299Z,14.44
2023-01-08T01:24:11.226Z,14.43
2023-01-08T01:24:22.224Z,14.45
2023-01-08T01:24:34.231Z,14.43
2023-01-08T01:24:45.292Z,14.44
2023-01-08T01:24:56.244Z,14.44
2023-01-08T01:25:08.266Z,14.44
2023-01-08T01:25:26.250Z,14.45
2023-01-08T01:25:31.226Z,14.44
2023-01-08T01:25:45.707Z,14.45
2023-01-08T01:25:54.209Z,14.45
2023-01-08T01:26:33.476Z,14.44
2023-01-08T01:26:34.252Z,14.44
2023-01-08T01:26:45.232Z,14.44
2023-01-08T01:26:57.249Z,14.45
2023-01-08T01:27:09.273Z,14.45
2023-01-08T01:27:21.272Z,14.45
2023-01-08T01:28:42.367Z,14.43
2023-01-08T01:28:54.274Z,14.45
2023-01-08T01:29:06.292Z,14.44
2023-01-08T01:29:17.250Z,14.44
2023-01-08T01:29:35.214Z,14.44
2023-01-08T01:29:39.242Z,14.44
2023-01-08T01:30:04.437Z,14.43
2023-01-08T01:30:05.292Z,14.44
2023-01-08T01:30:27.952Z,14.44
2023-01-08T01:30:29.208Z,14.44
2023-01-08T01:30:52.525Z,14.43
2023-01-08T01:30:53.365Z,14.43
2023-01-08T01:31:05.291Z,14.44
2023-01-08T01:31:25.016Z,14.43
2023-01-08T01:31:29.246Z,14.44
2023-01-08T01:31:48.004Z,14.44
2023-01-08T01:31:52.234Z,14.43
2023-01-08T01:32:03.202Z,14.44
2023-01-08T01:33:29.295Z,14.43
2023-01-08T01:33:41.292Z,14.43
2023-01-08T01:33:53.204Z,14.43
2023-01-08T01:34:05.219Z,14.43
2023-01-08T01:34:16.281Z,14.44
2023-01-08T01:34:28.291Z,14.44
2023-01-08T01:34:40.205Z,14.44
2023-01-08T01:34:52.211Z,14.43
2023-01-08T01:35:04.227Z,14.44
2023-01-08T01:35:15.285Z,14.44
2023-01-08T01:35:26.249Z,14.44
2023-01-08T01:35:38.256Z,14.43
2023-01-08T01:35:50.267Z,14.43
2023-01-08T01:36:01.243Z,14.44
2023-01-08T01:36:21.130Z,14.43
2023-01-08T01:36:24.211Z,14.41
2023-01-08T01:36:36.225Z,14.44
2023-01-08T01:36:48.223Z,14.44
2023-01-08T01:36:59.287Z,14.44
2023-01-08T01:37:10.250Z,14.43
2023-01-08T01:37:22.280Z,14.45
2023-01-08T01:37:34.285Z,14.44
2023-01-08T01:39:14.252Z,14.43
2023-01-08T01:39:40.236Z,14.44
2023-01-08T01:39:41.203Z,14.41
2023-01-08T01:41:07.292Z,14.43
2023-01-08T01:41:19.211Z,14.44
2023-01-08T01:41:45.887Z,14.43
2023-01-08T01:41:47.250Z,14.41
2023-01-08T01:41:58.238Z,14.43
2023-01-08T01:42:09.289Z,14.43
2023-01-08T01:42:21.197Z,14.43
2023-01-08T01:43:39.226Z,14.41
2023-01-08T01:43:50.315Z,14.43
2023-01-08T01:45:17.253Z,14.41
2023-01-08T01:45:28.217Z,14.43
2023-01-08T01:45:39.299Z,14.43
2023-01-08T01:45:51.244Z,14.43
2023-01-08T01:46:03.325Z,14.41
2023-01-08T01:46:14.220Z,14.41
2023-01-08T01:46:25.215Z,14.43
2023-01-08T01:46:37.231Z,14.43
2023-01-08T01:46:48.201Z,14.43
2023-01-08T01:46:59.243Z,14.43
2023-01-08T01:47:10.216Z,14.41
2023-01-08T01:47:21.278Z,14.41
2023-01-08T01:47:32.237Z,14.43
2023-01-08T01:47:44.236Z,14.43
2023-01-08T01:47:56.269Z,14.41
2023-01-08T01:48:07.224Z,14.41
2023-01-08T01:48:18.214Z,14.41
2023-01-08T01:48:29.278Z,14.43
2023-01-08T01:48:41.287Z,14.43
2023-01-08T01:48:53.192Z,14.43
2023-01-08T01:49:04.249Z,14.43
2023-01-08T01:49:16.256Z,14.43
2023-01-08T01:49:27.239Z,14.44
2023-01-08T01:49:39.252Z,14.43
2023-01-08T01:49:51.245Z,14.41
2023-01-08T01:50:03.252Z,14.43
2023-01-08T01:50:15.269Z,14.43
2023-01-08T01:50:26.244Z,14.43
2023-01-08T01:50:37.249Z,14.43
2023-01-08T01:50:48.205Z,14.43
2023-01-08T01:50:59.253Z,14.41
2023-01-08T01:51:10.211Z,14.43
2023-01-08T01:51:22.234Z,14.43
2023-01-08T01:51:33.284Z,14.43
2023-01-08T01:51:45.225Z,14.43
2023-01-08T01:51:57.242Z,14.41
2023-01-08T01:52:09.257Z,14.41
2023-01-08T01:52:21.267Z,14.43
2023-01-08T01:52:33.275Z,14.40
2023-01-08T01:52:45.231Z,14.43
2023-01-08T01:52:57.232Z,14.41
2023-01-08T01:53:08.189Z,14.43
2023-01-08T01:53:19.245Z,14.41
2023-01-08T01:53:31.260Z,14.43
2023-01-08T01:53:42.211Z,14.41
2023-01-08T01:53:54.206Z,14.43
2023-01-08T01:54:05.262Z,14.43
2023-01-08T01:54:16.244Z,14.41
2023-01-08T01:54:27.230Z,14.41
2023-01-08T01:54:38.198Z,14.44
2023-01-08T01:54:49.240Z,14.43
2023-01-08T01:55:01.256Z,14.41
2023-01-08T01:55:13.274Z,14.43
2023-01-08T01:55:25.287Z,14.41
2023-01-08T01:55:36.223Z,14.43
2023-01-08T01:55:48.260Z,14.41
2023-01-08T01:57:07.228Z,14.43
2023-01-08T01:57:18.281Z,14.41
2023-01-08T01:57:30.189Z,14.43
2023-01-08T01:57:41.254Z,14.43
2023-01-08T01:57:52.208Z,14.41
2023-01-08T01:58:04.229Z,14.43
2023-01-08T01:58:15.297Z,14.43
2023-01-08T01:58:26.247Z,14.41
2023-01-08T01:58:37.214Z,14.43
2023-01-08T01:58:49.234Z,14.41
2023-01-08T01:59:00.297Z,14.41
2023-01-08T01:59:11.234Z,14.43
2023-01-08T01:59:23.254Z,14.41
2023-01-08T01:59:34.212Z,14.41
2023-01-08T01:59:45.288Z,14.41
2023-01-08T01:59:56.248Z,14.41
2023-01-08T02:00:07.207Z,14.41
2023-01-08T02:00:18.294Z,14.41
2023-01-08T02:00:30.232Z,14.41
2023-01-08T02:00:41.206Z,14.41
2023-01-08T02:00:53.322Z,14.41
2023-01-08T02:01:04.357Z,14.43
2023-01-08T02:01:15.270Z,14.41
2023-01-08T02:01:27.396Z,14.41
2023-01-08T02:01:38.347Z,14.43
2023-01-08T02:01:50.408Z,14.41
2023-01-08T02:02:01.359Z,14.43
2023-01-08T02:02:12.409Z,14.41
2023-01-08T02:02:24.361Z,14.41
2023-01-08T02:02:36.229Z,14.44
2023-01-08T02:02:47.287Z,14.41
2023-01-08T02:02:58.250Z,14.41
2023-01-08T02:03:09.204Z,14.41
2023-01-08T02:03:20.267Z,14.41
2023-01-08T02:03:32.284Z,14.43
2023-01-08T02:03:44.267Z,14.41
2023-01-08T02:03:55.284Z,14.43
2023-01-08T02:04:07.275Z,14.43
2023-01-08T02:04:18.280Z,14.43
2023-01-08T02:04:30.255Z,14.43
2023-01-08T02:05:50.251Z,14.41
2023-01-08T02:06:01.245Z,14.41
2023-01-08T02:06:13.254Z,14.40
2023-01-08T02:06:24.216Z,14.43
2023-01-08T02:06:36.226Z,14.43
2023-01-08T02:06:47.191Z,14.41
2023-01-08T02:06:58.256Z,14.43
2023-01-08T02:07:10.221Z,14.41
2023-01-08T02:07:22.237Z,14.41
2023-01-08T02:07:33.191Z,14.41
2023-01-08T02:07:44.239Z,14.41
2023-01-08T02:07:55.198Z,14.41
2023-01-08T02:08:06.248Z,14.41
2023-01-08T02:08:17.196Z,14.41
2023-01-08T02:08:29.211Z,14.41
2023-01-08T02:08:40.292Z,14.41
2023-01-08T02:08:52.197Z,14.41
2023-01-08T02:09:03.289Z,14.41
2023-01-08T02:09:15.217Z,14.41
2023-01-08T02:09:27.240Z,14.41
2023-01-08T02:09:38.203Z,14.41
2023-01-08T02:09:50.217Z,14.43
2023-01-08T02:10:01.196Z,14.43
2023-01-08T02:10:12.271Z,14.41
2023-01-08T02:10:23.237Z,14.41
2023-01-08T02:10:34.245Z,14.41
2023-01-08T02:10:46.260Z,14.41
2023-01-08T02:10:58.268Z,14.43
2023-01-08T02:11:10.215Z,14.41
2023-01-08T02:11:21.287Z,14.41
2023-01-08T02:11:32.241Z,14.43
2023-01-08T02:11:44.271Z,14.43
2023-01-08T02:11:56.214Z,14.41
2023-01-08T02:12:07.280Z,14.41
2023-01-08T02:12:18.252Z,14.41
2023-01-08T02:12:29.215Z,14.41
2023-01-08T02:12:41.228Z,14.41
2023-01-08T02:12:53.240Z,14.41
2023-01-08T02:13:05.259Z,14.43
2023-01-08T02:13:16.223Z,14.41
2023-01-08T02:13:28.236Z,14.41
2023-01-08T02:13:39.194Z,14.41
2023-01-08T02:13:51.213Z,14.41
2023-01-08T02:14:03.220Z,14.41
2023-01-08T02:14:14.291Z,14.40
2023-01-08T02:14:25.241Z,14.43
2023-01-08T02:14:36.285Z,14.41
2023-01-08T02:14:48.206Z,14.43
2023-01-08T02:15:00.222Z,14.40
2023-01-08T02:15:11.196Z,14.43
2023-01-08T02:15:22.255Z,14.41
2023-01-08T02:15:33.216Z,14.41
2023-01-08T02:15:44.203Z,14.41
2023-01-08T02:15:56.212Z,14.41
2023-01-08T02:16:08.248Z,14.43
2023-01-08T02:16:19.230Z,14.41
2023-01-08T02:16:30.245Z,14.41
2023-01-08T02:16:41.228Z,14.41
2023-01-08T02:16:52.263Z,14.41
2023-01-08T02:17:03.271Z,14.41
2023-01-08T02:17:14.256Z,14.41
2023-01-08T02:17:26.264Z,14.40
2023-01-08T02:17:38.237Z,14.43
2023-01-08T02:17:49.202Z,14.41
2023-01-08T02:18:00.262Z,14.41
2023-01-08T02:18:24.073Z,14.40
2023-01-08T02:18:25.222Z,14.40
2023-01-08T02:18:37.239Z,14.40
2023-01-08T02:18:49.251Z,14.43
2023-01-08T02:19:01.262Z,14.40
2023-01-08T02:19:12.224Z,14.43
2023-01-08T02:19:24.260Z,14.41
2023-01-08T02:19:35.216Z,14.41
2023-01-08T02:19:58.082Z,14.41
2023-01-08T02:19:59.252Z,14.40
2023-01-08T02:20:10.218Z,14.41
2023-01-08T02:20:21.289Z,14.40
2023-01-08T02:20:33.196Z,14.40
2023-01-08T02:20:56.103Z,14.41
2023-01-08T02:20:57.256Z,14.40
2023-01-08T02:21:09.268Z,14.41
2023-01-08T02:21:21.276Z,14.41
2023-01-08T02:21:33.192Z,14.41
2023-01-08T02:21:44.254Z,14.40
2023-01-08T02:21:56.275Z,14.40
2023-01-08T02:22:08.214Z,14.41
2023-01-08T02:22:20.242Z,14.41
2023-01-08T02:22:31.205Z,14.41
2023-01-08T02:22:43.217Z,14.41
2023-01-08T02:22:54.279Z,14.41
2023-01-08T02:23:06.280Z,14.40
2023-01-08T02:23:18.193Z,14.41
2023-01-08T02:23:29.254Z,14.40
2023-01-08T02:23:40.231Z,14.40
2023-01-08T02:23:52.232Z,14.41
2023-01-08T02:24:03.220Z,14.40
2023-01-08T02:24:14.196Z,14.41
2023-01-08T02:24:25.281Z,14.40
2023-01-08T02:24:37.214Z,14.40
2023-01-08T02:24:48.287Z,14.41
2023-01-08T02:25:00.215Z,14.41
2023-01-08T02:25:12.218Z,14.40
2023-01-08T02:25:23.280Z,14.41
2023-01-08T02:25:35.213Z,14.41
2023-01-08T02:25:46.275Z,14.41
2023-01-08T02:25:58.210Z,14.40
2023-01-08T02:26:09.265Z,14.40
2023-01-08T02:26:20.217Z,14.41
2023-01-08T02:26:31.290Z,14.40
2023-01-08T02:26:42.243Z,14.40
2023-01-08T02:26:54.271Z,14.40
2023-01-08T02:27:06.274Z,14.41
2023-01-08T02:27:18.220Z,14.41
2023-01-08T02:27:29.279Z,14.40
2023-01-08T02:27:40.241Z,14.40
2023-01-08T02:27:52.240Z,14.41
2023-01-08T02:28:04.245Z,14.40
2023-01-08T02:28:15.227Z,14.40
2023-01-08T02:28:26.225Z,14.41
2023-01-08T02:28:37.208Z,14.40
2023-01-08T02:28:48.271Z,14.41
2023-01-08T02:28:59.220Z,14.40
2023-01-08T02:29:10.282Z,14.41
2023-01-08T02:29:22.290Z,14.40
2023-01-08T02:29:33.224Z,14.40
2023-01-08T02:29:45.215Z,14.41
2023-01-08T02:29:57.243Z,14.37
2023-01-08T02:30:09.240Z,14.41
2023-01-08T02:30:20.208Z,14.41
2023-01-08T02:30:31.322Z,14.41
2023-01-08T02:30:43.362Z,14.41
2023-01-08T02:30:54.299Z,14.40
2023-01-08T02:31:06.300Z,14.41
2023-01-08T02:31:17.306Z,14.41
2023-01-08T02:31:28.199Z,14.40
2023-01-08T02:31:39.261Z,14.41
2023-01-08T02:31:51.278Z,14.41
2023-01-08T02:32:02.237Z,14.41
2023-01-08T02:32:14.288Z,14.41
2023-01-08T02:32:25.230Z,14.41
2023-01-08T02:32:36.211Z,14.40
2023-01-08T02:32:47.258Z,14.41
2023-01-08T02:32:59.270Z,14.43
2023-01-08T02:33:11.281Z,14.41
2023-01-08T02:33:23.218Z,14.41
2023-01-08T02:33:34.293Z,14.43
2023-01-08T02:33:46.190Z,14.41
2023-01-08T02:33:57.277Z,14.40
2023-01-08T02:34:09.196Z,14.40
2023-01-08T02:34:20.238Z,14.40
2023-01-08T02:34:31.218Z,14.41
2023-01-08T02:34:42.287Z,14.41
2023-01-08T02:34:54.190Z,14.40
2023-01-08T02:35:06.217Z,14.40
2023-01-08T02:35:17.213Z,14.40
2023-01-08T02:35:28.283Z,14.43
2023-01-08T02:35:39.234Z,14.40
2023-01-08T02:35:51.238Z,14.40
2023-01-08T02:36:03.254Z,14.41
2023-01-08T02:36:15.249Z,14.40
2023-01-08T02:36:26.237Z,14.41
2023-01-08T02:36:38.245Z,14.43
2023-01-08T02:36:50.254Z,14.41
2023-01-08T02:37:02.285Z,14.41
2023-01-08T02:37:13.220Z,14.40
2023-01-08T02:37:25.240Z,14.41
2023-01-08T02:37:37.261Z,14.40
2023-01-08T02:37:49.265Z,14.41
2023-01-08T02:38:01.256Z,14.40
2023-01-08T02:38:12.237Z,14.41
2023-01-08T02:38:23.187Z,14.41
2023-01-08T02:38:34.237Z,14.41
2023-01-08T02:38:46.238Z,14.41
2023-01-08T02:38:57.207Z,14.40
2023-01-08T02:39:09.219Z,14.41
2023-01-08T02:39:21.237Z,14.40
2023-01-08T02:39:33.233Z,14.40
2023-01-08T02:39:45.262Z,14.41
2023-01-08T02:39:57.216Z,14.41
2023-01-08T02:40:08.218Z,14.41
2023-01-08T02:40:20.220Z,14.41
2023-01-08T02:40:31.275Z,14.41
2023-01-08T02:40:43.289Z,14.41
2023-01-08T02:40:55.189Z,14.40
2023-01-08T02:41:06.250Z,14.43
2023-01-08T02:41:18.259Z,14.41
2023-01-08T02:41:29.218Z,14.40
2023-01-08T02:41:41.234Z,14.41
2023-01-08T02:41:53.238Z,14.41
2023-01-08T02:42:05.269Z,14.41
2023-01-08T02:42:16.218Z,14.41
2023-01-08T02:42:27.282Z,14.41
2023-01-08T02:42:38.243Z,14.40
2023-01-08T02:42:49.198Z,14.40
2023-01-08T02:43:01.215Z,14.41
2023-01-08T02:43:13.246Z,14.41
2023-01-08T02:43:24.221Z,14.41
2023-01-08T02:43:35.201Z,14.40
2023-01-08T02:43:46.258Z,14.41
2023-01-08T02:43:58.269Z,14.41
2023-01-08T02:44:10.282Z,14.41
2023-01-08T02:44:21.247Z,14.40
2023-01-08T02:44:33.346Z,14.41
2023-01-08T02:44:45.237Z,14.41
2023-01-08T02:44:57.247Z,14.41
2023-01-08T02:45:09.268Z,14.41
2023-01-08T02:45:20.228Z,14.41
2023-01-08T02:45:32.266Z,14.41
2023-01-08T02:45:43.257Z,14.40
2023-01-08T02:45:54.220Z,14.41
2023-01-08T02:47:12.207Z,14.40
2023-01-08T02:47:24.217Z,14.41
2023-01-08T02:47:36.244Z,14.40
2023-01-08T02:47:47.197Z,14.41
2023-01-08T02:47:59.205Z,14.43
2023-01-08T02:48:11.224Z,14.40
2023-01-08T02:48:22.191Z,14.40
2023-01-08T02:48:33.257Z,14.40